Matador, Texas
Current Conditions -  °F | °C
As of 4:53 PM on Thursday 27 Nov 2014 (Local Time) from KCDS Reporting Station
Clear Clear  
Wind Chill: 55°   Ceiling: Unl
Heat Index: 55°   Visibility: 10mi
Dew Point: 26°   Wind: 14mph
Humidity: 33%   Direction: 180°S
Pressure: 30.31"   Gusts: NA
Location:  34.01°N, 100.82°W
Report Text: KCDS 272253Z AUTO 18012KT 10SM CLR 13/M03 A3031 RMK AO2 SLP267 T01281033
Loading
Personal Weather Stations






























Interactive Weather Map New forecast layout! Learn more

10-Day Weather Forecast

Advertisements
Track Severe Weather on mobile